sensor_id;sensor_type;location;lat;lon;timestamp;pressure;altitude;pressure_sealevel;temperature;humidity
53916;BME280;39827;49.652;18.770;2023-04-25T00:01:03;73269.22;;;-149.71;82.26
53916;BME280;39827;49.652;18.770;2023-04-25T00:03:30;73267.22;;;-149.71;81.88
53916;BME280;39827;49.652;18.770;2023-04-25T00:05:57;73271.22;;;-149.71;81.75
53916;BME280;39827;49.652;18.770;2023-04-25T00:08:23;73259.19;;;-149.71;81.52
53916;BME280;39827;49.652;18.770;2023-04-25T00:10:48;73265.19;;;-149.71;81.49
53916;BME280;39827;49.652;18.770;2023-04-25T00:13:14;73259.19;;;-149.71;81.60
53916;BME280;39827;49.652;18.770;2023-04-25T00:15:42;73275.25;;;-149.71;81.23
53916;BME280;39827;49.652;18.770;2023-04-25T00:18:08;73263.19;;;-149.71;80.90
53916;BME280;39827;49.652;18.770;2023-04-25T00:20:35;73247.13;;;-149.71;80.91
53916;BME280;39827;49.652;18.770;2023-04-25T00:23:01;73249.13;;;-149.71;80.58
53916;BME280;39827;49.652;18.770;2023-04-25T00:25:26;73243.09;;;-149.71;80.16
53916;BME280;39827;49.652;18.770;2023-04-25T00:27:51;73239.09;;;-149.71;80.12
53916;BME280;39827;49.652;18.770;2023-04-25T00:30:17;73243.09;;;-149.71;79.89
53916;BME280;39827;49.652;18.770;2023-04-25T00:32:42;73245.13;;;-149.71;79.85
53916;BME280;39827;49.652;18.770;2023-04-25T00:35:09;73235.06;;;-149.71;79.80
53916;BME280;39827;49.652;18.770;2023-04-25T00:37:34;73251.13;;;-149.71;80.46
53916;BME280;39827;49.652;18.770;2023-04-25T00:40:00;73255.16;;;-149.71;80.18
53916;BME280;39827;49.652;18.770;2023-04-25T00:42:26;73253.16;;;-149.71;80.50
53916;BME280;39827;49.652;18.770;2023-04-25T00:44:52;73243.09;;;-149.71;80.38
53916;BME280;39827;49.652;18.770;2023-04-25T00:47:18;73245.13;;;-149.71;80.57
53916;BME280;39827;49.652;18.770;2023-04-25T00:49:43;73253.16;;;-149.71;79.95
53916;BME280;39827;49.652;18.770;2023-04-25T00:52:10;73255.16;;;-149.71;79.86
53916;BME280;39827;49.652;18.770;2023-04-25T00:54:35;73259.19;;;-149.71;79.18
53916;BME280;39827;49.652;18.770;2023-04-25T00:57:01;73257.16;;;-149.71;78.10
53916;BME280;39827;49.652;18.770;2023-04-25T00:59:28;73255.16;;;-149.71;78.67
53916;BME280;39827;49.652;18.770;2023-04-25T01:01:55;73259.19;;;-149.71;77.89
53916;BME280;39827;49.652;18.770;2023-04-25T01:04:20;73269.22;;;-149.71;78.66
53916;BME280;39827;49.652;18.770;2023-04-25T01:06:46;73277.25;;;-149.71;79.54
53916;BME280;39827;49.652;18.770;2023-04-25T01:09:12;73273.22;;;-149.71;80.05
53916;BME280;39827;49.652;18.770;2023-04-25T01:11:38;73277.25;;;-149.71;80.27
53916;BME280;39827;49.652;18.770;2023-04-25T01:14:05;73283.28;;;-149.71;80.59
53916;BME280;39827;49.652;18.770;2023-04-25T01:16:31;73289.31;;;-149.71;81.12
53916;BME280;39827;49.652;18.770;2023-04-25T01:18:56;73283.28;;;-149.71;80.59
53916;BME280;39827;49.652;18.770;2023-04-25T01:21:22;73279.25;;;-149.71;80.06
53916;BME280;39827;49.652;18.770;2023-04-25T01:23:51;73281.28;;;-149.71;80.29
53916;BME280;39827;49.652;18.770;2023-04-25T01:26:17;73299.34;;;-149.71;80.33
53916;BME280;39827;49.652;18.770;2023-04-25T01:28:43;73289.31;;;-149.71;80.18
53916;BME280;39827;49.652;18.770;2023-04-25T01:31:11;73295.34;;;-149.71;79.90
53916;BME280;39827;49.652;18.770;2023-04-25T01:33:37;73317.44;;;-149.71;80.88
53916;BME280;39827;49.652;18.770;2023-04-25T01:36:03;73313.41;;;-149.71;80.27
53916;BME280;39827;49.652;18.770;2023-04-25T01:38:28;73327.47;;;-149.71;80.41
53916;BME280;39827;49.652;18.770;2023-04-25T01:40:54;73327.47;;;-149.71;79.83
53916;BME280;39827;49.652;18.770;2023-04-25T01:43:20;73349.56;;;-149.71;78.84
53916;BME280;39827;49.652;18.770;2023-04-25T01:45:46;73341.53;;;-149.71;79.56
53916;BME280;39827;49.652;18.770;2023-04-25T01:48:13;73353.59;;;-149.71;79.14
53916;BME280;39827;49.652;18.770;2023-04-25T01:50:39;73371.66;;;-149.71;79.89
53916;BME280;39827;49.652;18.770;2023-04-25T01:53:05;73359.59;;;-149.71;79.94
53916;BME280;39827;49.652;18.770;2023-04-25T01:55:31;73367.63;;;-149.71;80.33
53916;BME280;39827;49.652;18.770;2023-04-25T01:57:56;73373.66;;;-149.71;80.55
53916;BME280;39827;49.652;18.770;2023-04-25T02:00:22;73369.66;;;-149.71;80.25
53916;BME280;39827;49.652;18.770;2023-04-25T02:02:48;73367.63;;;-149.71;81.06
53916;BME280;39827;49.652;18.770;2023-04-25T02:05:16;73359.59;;;-149.71;81.29
53916;BME280;39827;49.652;18.770;2023-04-25T02:07:41;73373.66;;;-149.71;81.42
53916;BME280;39827;49.652;18.770;2023-04-25T02:10:07;73395.75;;;-149.71;79.97
53916;BME280;39827;49.652;18.770;2023-04-25T02:12:32;73379.69;;;-149.71;80.35
53916;BME280;39827;49.652;18.770;2023-04-25T02:14:58;73393.75;;;-149.71;80.69
53916;BME280;39827;49.652;18.770;2023-04-25T02:17:23;73407.81;;;-149.71;79.53
53916;BME280;39827;49.652;18.770;2023-04-25T02:19:48;73423.88;;;-149.71;78.41
53916;BME280;39827;49.652;18.770;2023-04-25T02:22:15;73415.84;;;-149.71;78.51
53916;BME280;39827;49.652;18.770;2023-04-25T02:24:40;73439.97;;;-149.71;79.47
53916;BME280;39827;49.652;18.770;2023-04-25T02:27:06;73450.00;;;-149.71;78.45
53916;BME280;39827;49.652;18.770;2023-04-25T02:29:32;73454.00;;;-149.71;79.00
53916;BME280;39827;49.652;18.770;2023-04-25T02:31:58;73448.00;;;-149.71;79.29
53916;BME280;39827;49.652;18.770;2023-04-25T02:34:23;73448.00;;;-149.71;79.68
53916;BME280;39827;49.652;18.770;2023-04-25T02:36:49;73452.00;;;-149.71;79.59
53916;BME280;39827;49.652;18.770;2023-04-25T02:39:16;73466.06;;;-149.71;79.90
53916;BME280;39827;49.652;18.770;2023-04-25T02:41:42;73462.06;;;-149.71;79.86
53916;BME280;39827;49.652;18.770;2023-04-25T02:44:07;73462.06;;;-149.71;80.03
53916;BME280;39827;49.652;18.770;2023-04-25T02:46:32;73456.03;;;-149.71;79.98
53916;BME280;39827;49.652;18.770;2023-04-25T02:48:58;73480.13;;;-149.71;79.63
53916;BME280;39827;49.652;18.770;2023-04-25T02:51:24;73484.16;;;-149.71;79.85
53916;BME280;39827;49.652;18.770;2023-04-25T02:53:50;73508.25;;;-149.71;80.17
53916;BME280;39827;49.652;18.770;2023-04-25T02:56:15;73496.19;;;-149.71;79.56
53916;BME280;39827;49.652;18.770;2023-04-25T02:58:40;73492.19;;;-149.71;80.05
53916;BME280;39827;49.652;18.770;2023-04-25T03:01:06;73506.25;;;-149.71;79.63
53916;BME280;39827;49.652;18.770;2023-04-25T03:03:31;73504.22;;;-149.71;79.72
53916;BME280;39827;49.652;18.770;2023-04-25T03:05:56;73498.22;;;-149.71;79.58
53916;BME280;39827;49.652;18.770;2023-04-25T03:08:22;73502.22;;;-149.71;79.76
53916;BME280;39827;49.652;18.770;2023-04-25T03:10:48;73488.16;;;-149.71;79.98
53916;BME280;39827;49.652;18.770;2023-04-25T03:13:15;73462.06;;;-149.71;78.98
53916;BME280;39827;49.652;18.770;2023-04-25T03:15:40;73484.16;;;-149.71;79.16
53916;BME280;39827;49.652;18.770;2023-04-25T03:18:06;73472.09;;;-149.71;78.55
53916;BME280;39827;49.652;18.770;2023-04-25T03:20:31;73472.09;;;-149.71;78.28
53916;BME280;39827;49.652;18.770;2023-04-25T03:22:57;73466.06;;;-149.71;78.50
53916;BME280;39827;49.652;18.770;2023-04-25T03:25:22;73480.13;;;-149.71;78.89
53916;BME280;39827;49.652;18.770;2023-04-25T03:27:48;73476.13;;;-149.71;78.88
53916;BME280;39827;49.652;18.770;2023-04-25T03:30:13;73504.22;;;-149.71;79.45
53916;BME280;39827;49.652;18.770;2023-04-25T03:32:38;73488.16;;;-149.71;79.73
53916;BME280;39827;49.652;18.770;2023-04-25T03:35:04;73480.13;;;-149.71;79.50
53916;BME280;39827;49.652;18.770;2023-04-25T03:37:30;73476.13;;;-149.71;78.89
53916;BME280;39827;49.652;18.770;2023-04-25T03:39:55;73478.13;;;-149.71;78.20
53916;BME280;39827;49.652;18.770;2023-04-25T03:42:21;73470.09;;;-149.71;78.14
53916;BME280;39827;49.652;18.770;2023-04-25T03:44:48;73466.06;;;-149.71;77.94
53916;BME280;39827;49.652;18.770;2023-04-25T03:47:14;73474.09;;;-149.71;78.16
53916;BME280;39827;49.652;18.770;2023-04-25T03:49:39;73484.16;;;-149.71;77.97
53916;BME280;39827;49.652;18.770;2023-04-25T03:52:05;73474.09;;;-149.71;77.94
53916;BME280;39827;49.652;18.770;2023-04-25T03:54:30;73486.16;;;-149.71;77.85
53916;BME280;39827;49.652;18.770;2023-04-25T03:56:56;73490.19;;;-149.71;78.00
53916;BME280;39827;49.652;18.770;2023-04-25T03:59:21;73510.25;;;-149.71;78.75
53916;BME280;39827;49.652;18.770;2023-04-25T04:01:47;73492.19;;;-149.71;78.96
53916;BME280;39827;49.652;18.770;2023-04-25T04:04:12;73500.22;;;-149.71;78.85
53916;BME280;39827;49.652;18.770;2023-04-25T04:06:37;73490.19;;;-149.71;78.01
53916;BME280;39827;49.652;18.770;2023-04-25T04:09:03;73496.19;;;-149.71;78.43
53916;BME280;39827;49.652;18.770;2023-04-25T04:11:28;73496.19;;;-149.71;78.48
53916;BME280;39827;49.652;18.770;2023-04-25T04:13:54;73500.22;;;-149.71;78.59
53916;BME280;39827;49.652;18.770;2023-04-25T04:16:20;73484.16;;;-149.71;77.77
53916;BME280;39827;49.652;18.770;2023-04-25T04:18:45;73484.16;;;-149.71;78.15
53916;BME280;39827;49.652;18.770;2023-04-25T04:21:11;73496.19;;;-149.71;77.40
53916;BME280;39827;49.652;18.770;2023-04-25T04:23:36;73512.28;;;-149.71;77.09
53916;BME280;39827;49.652;18.770;2023-04-25T04:26:02;73500.22;;;-149.71;77.39
53916;BME280;39827;49.652;18.770;2023-04-25T04:28:28;73504.22;;;-149.71;76.99
53916;BME280;39827;49.652;18.770;2023-04-25T04:30:53;73516.28;;;-149.71;76.82
53916;BME280;39827;49.652;18.770;2023-04-25T04:33:19;73498.22;;;-149.71;77.31
53916;BME280;39827;49.652;18.770;2023-04-25T04:35:45;73494.19;;;-149.71;77.47
53916;BME280;39827;49.652;18.770;2023-04-25T04:38:12;73494.19;;;-149.71;77.07
53916;BME280;39827;49.652;18.770;2023-04-25T04:40:40;73484.16;;;-149.71;76.67
53916;BME280;39827;49.652;18.770;2023-04-25T04:43:06;73494.19;;;-149.71;76.94
53916;BME280;39827;49.652;18.770;2023-04-25T04:45:34;73488.16;;;-149.71;76.43
53916;BME280;39827;49.652;18.770;2023-04-25T04:47:59;73480.13;;;-149.71;77.32
53916;BME280;39827;49.652;18.770;2023-04-25T04:50:24;73478.13;;;-149.71;77.06
53916;BME280;39827;49.652;18.770;2023-04-25T04:52:51;73490.19;;;-149.71;77.05
53916;BME280;39827;49.652;18.770;2023-04-25T04:55:17;73510.25;;;-149.71;77.12
53916;BME280;39827;49.652;18.770;2023-04-25T04:57:42;73486.16;;;-149.71;75.93
53916;BME280;39827;49.652;18.770;2023-04-25T05:00:08;73494.19;;;-149.71;75.60
53916;BME280;39827;49.652;18.770;2023-04-25T05:02:37;73468.06;;;-149.71;76.17
53916;BME280;39827;49.652;18.770;2023-04-25T05:05:03;73476.13;;;-149.71;76.65
53916;BME280;39827;49.652;18.770;2023-04-25T05:07:28;73474.09;;;-149.71;76.82
53916;BME280;39827;49.652;18.770;2023-04-25T05:09:54;73472.09;;;-149.71;76.77
53916;BME280;39827;49.652;18.770;2023-04-25T05:12:19;73464.06;;;-149.71;76.06
53916;BME280;39827;49.652;18.770;2023-04-25T05:14:44;73466.06;;;-149.71;76.68
53916;BME280;39827;49.652;18.770;2023-04-25T05:17:10;73448.00;;;-149.71;76.63
53916;BME280;39827;49.652;18.770;2023-04-25T05:19:35;73448.00;;;-149.71;76.24
53916;BME280;39827;49.652;18.770;2023-04-25T05:22:02;73439.97;;;-149.71;76.15
53916;BME280;39827;49.652;18.770;2023-04-25T05:24:27;73437.94;;;-149.71;75.50
53916;BME280;39827;49.652;18.770;2023-04-25T05:26:53;73445.97;;;-149.71;75.22
53916;BME280;39827;49.652;18.770;2023-04-25T05:29:18;73443.97;;;-149.71;75.90
53916;BME280;39827;49.652;18.770;2023-04-25T05:31:45;73427.91;;;-149.71;75.91
53916;BME280;39827;49.652;18.770;2023-04-25T05:34:10;73452.00;;;-149.71;75.47
53916;BME280;39827;49.652;18.770;2023-04-25T05:36:35;73458.03;;;-149.71;75.07
53916;BME280;39827;49.652;18.770;2023-04-25T05:39:01;73462.06;;;-149.71;75.67
53916;BME280;39827;49.652;18.770;2023-04-25T05:41:28;73445.97;;;-149.71;74.99
53916;BME280;39827;49.652;18.770;2023-04-25T05:43:54;73456.03;;;-149.71;75.45
53916;BME280;39827;49.652;18.770;2023-04-25T05:46:19;73466.06;;;-149.71;75.57
53916;BME280;39827;49.652;18.770;2023-04-25T05:48:45;73478.13;;;-149.71;75.30
53916;BME280;39827;49.652;18.770;2023-04-25T05:51:10;73456.03;;;-149.71;73.40
53916;BME280;39827;49.652;18.770;2023-04-25T05:53:36;73464.06;;;-149.71;74.33
53916;BME280;39827;49.652;18.770;2023-04-25T05:56:02;73460.03;;;-149.71;75.21
53916;BME280;39827;49.652;18.770;2023-04-25T05:58:28;73468.06;;;-149.71;74.84
53916;BME280;39827;49.652;18.770;2023-04-25T06:00:54;73452.00;;;-149.71;73.93
53916;BME280;39827;49.652;18.770;2023-04-25T06:03:20;73437.94;;;-149.71;74.29
53916;BME280;39827;49.652;18.770;2023-04-25T06:05:46;73443.97;;;-149.71;74.74
53916;BME280;39827;49.652;18.770;2023-04-25T06:08:11;73427.91;;;-149.71;73.82
53916;BME280;39827;49.652;18.770;2023-04-25T06:10:37;73417.88;;;-149.71;73.57
53916;BME280;39827;49.652;18.770;2023-04-25T06:13:03;73419.88;;;-149.71;72.75
53916;BME280;39827;49.652;18.770;2023-04-25T06:15:29;73419.88;;;-149.71;73.61
53916;BME280;39827;49.652;18.770;2023-04-25T06:17:55;73423.88;;;-149.71;74.03
53916;BME280;39827;49.652;18.770;2023-04-25T06:20:20;73403.81;;;-149.71;71.83
53916;BME280;39827;49.652;18.770;2023-04-25T06:22:48;73427.91;;;-149.71;71.23
53916;BME280;39827;49.652;18.770;2023-04-25T06:25:14;73427.91;;;-149.71;71.75
53916;BME280;39827;49.652;18.770;2023-04-25T06:27:40;73407.81;;;-149.71;71.83
53916;BME280;39827;49.652;18.770;2023-04-25T06:30:06;73415.84;;;-149.71;71.91
53916;BME280;39827;49.652;18.770;2023-04-25T06:32:31;73419.88;;;-149.71;72.78
53916;BME280;39827;49.652;18.770;2023-04-25T06:34:57;73415.84;;;-149.71;71.72
53916;BME280;39827;49.652;18.770;2023-04-25T06:37:23;73395.75;;;-149.71;71.55
53916;BME280;39827;49.652;18.770;2023-04-25T06:39:48;73395.75;;;-149.71;69.26
53916;BME280;39827;49.652;18.770;2023-04-25T06:42:13;73411.84;;;-149.71;68.50
53916;BME280;39827;49.652;18.770;2023-04-25T06:44:39;73419.88;;;-149.71;71.05
53916;BME280;39827;49.652;18.770;2023-04-25T06:47:04;73375.69;;;-149.71;70.50
53916;BME280;39827;49.652;18.770;2023-04-25T06:49:30;73375.69;;;-149.71;68.19
53916;BME280;39827;49.652;18.770;2023-04-25T06:51:55;73385.72;;;-149.71;64.68
53916;BME280;39827;49.652;18.770;2023-04-25T06:54:20;73363.63;;;-149.71;66.00
53916;BME280;39827;49.652;18.770;2023-04-25T06:56:46;73353.59;;;-149.71;69.35
53916;BME280;39827;49.652;18.770;2023-04-25T06:59:11;73341.53;;;-149.71;69.03
53916;BME280;39827;49.652;18.770;2023-04-25T07:01:37;73349.56;;;-149.71;70.41
53916;BME280;39827;49.652;18.770;2023-04-25T07:04:02;73349.56;;;-149.71;70.03
53916;BME280;39827;49.652;18.770;2023-04-25T07:06:28;73331.50;;;-149.71;68.82
53916;BME280;39827;49.652;18.770;2023-04-25T07:08:54;73329.47;;;-149.71;68.56
53916;BME280;39827;49.652;18.770;2023-04-25T07:11:19;73327.47;;;-149.71;69.65
53916;BME280;39827;49.652;18.770;2023-04-25T07:13:45;73333.50;;;-149.71;70.12
53916;BME280;39827;49.652;18.770;2023-04-25T07:16:10;73325.47;;;-149.71;71.46
53916;BME280;39827;49.652;18.770;2023-04-25T07:18:36;73329.47;;;-149.71;68.80
53916;BME280;39827;49.652;18.770;2023-04-25T07:21:01;73329.47;;;-149.71;69.53
53916;BME280;39827;49.652;18.770;2023-04-25T07:23:27;73319.44;;;-149.71;69.35
53916;BME280;39827;49.652;18.770;2023-04-25T07:25:52;73295.34;;;-149.71;68.39
53916;BME280;39827;49.652;18.770;2023-04-25T07:28:17;73287.28;;;-149.71;67.34
53916;BME280;39827;49.652;18.770;2023-04-25T07:30:43;73271.22;;;-149.71;66.27
53916;BME280;39827;49.652;18.770;2023-04-25T07:33:08;73287.28;;;-149.71;65.73
53916;BME280;39827;49.652;18.770;2023-04-25T07:35:34;73297.34;;;-149.71;65.76
53916;BME280;39827;49.652;18.770;2023-04-25T07:38:01;73289.31;;;-149.71;65.82
53916;BME280;39827;49.652;18.770;2023-04-25T07:40:27;73287.28;;;-149.71;65.95
53916;BME280;39827;49.652;18.770;2023-04-25T07:42:52;73297.34;;;-149.71;67.88
53916;BME280;39827;49.652;18.770;2023-04-25T07:45:18;73317.44;;;-149.71;68.47
53916;BME280;39827;49.652;18.770;2023-04-25T07:47:43;73319.44;;;-149.71;68.48
53916;BME280;39827;49.652;18.770;2023-04-25T07:50:09;73319.44;;;-149.71;68.05
53916;BME280;39827;49.652;18.770;2023-04-25T07:52:35;73315.41;;;-149.71;68.08
53916;BME280;39827;49.652;18.770;2023-04-25T07:55:00;73291.31;;;-149.71;64.50
53916;BME280;39827;49.652;18.770;2023-04-25T07:57:26;73307.38;;;-149.71;64.69
53916;BME280;39827;49.652;18.770;2023-04-25T07:59:51;73291.31;;;-149.71;67.14
53916;BME280;39827;49.652;18.770;2023-04-25T08:02:17;73265.19;;;-149.71;66.25
53916;BME280;39827;49.652;18.770;2023-04-25T08:04:42;73251.13;;;-149.71;65.12
53916;BME280;39827;49.652;18.770;2023-04-25T08:07:08;73225.03;;;-149.71;61.45
53916;BME280;39827;49.652;18.770;2023-04-25T08:09:33;73223.03;;;-149.71;61.69
53916;BME280;39827;49.652;18.770;2023-04-25T08:12:00;73229.03;;;-149.71;64.46
53916;BME280;39827;49.652;18.770;2023-04-25T08:14:27;73253.16;;;-149.71;64.75
53916;BME280;39827;49.652;18.770;2023-04-25T08:16:54;73263.19;;;-149.71;65.69
53916;BME280;39827;49.652;18.770;2023-04-25T08:19:19;73229.03;;;-149.71;65.46
53916;BME280;39827;49.652;18.770;2023-04-25T08:21:44;73190.88;;;-149.71;62.29
53916;BME280;39827;49.652;18.770;2023-04-25T08:24:10;73215.00;;;-149.71;60.50
53916;BME280;39827;49.652;18.770;2023-04-25T08:26:36;73192.88;;;-149.71;59.15
53916;BME280;39827;49.652;18.770;2023-04-25T08:29:02;73198.91;;;-149.71;58.08
53916;BME280;39827;49.652;18.770;2023-04-25T08:31:27;73221.00;;;-149.71;63.63
53916;BME280;39827;49.652;18.770;2023-04-25T08:33:53;73231.06;;;-149.71;63.67
53916;BME280;39827;49.652;18.770;2023-04-25T08:36:18;73281.28;;;-149.71;65.01
53916;BME280;39827;49.652;18.770;2023-04-25T08:38:44;73263.19;;;-149.71;63.99
53916;BME280;39827;49.652;18.770;2023-04-25T08:41:11;73237.09;;;-149.71;64.56
53916;BME280;39827;49.652;18.770;2023-04-25T08:43:37;73227.03;;;-149.71;65.73
53916;BME280;39827;49.652;18.770;2023-04-25T08:46:02;73212.97;;;-149.71;62.96
53916;BME280;39827;49.652;18.770;2023-04-25T08:48:32;73150.72;;;-149.71;63.35
53916;BME280;39827;49.652;18.770;2023-04-25T08:50:58;73110.53;;;-149.71;60.10
53916;BME280;39827;49.652;18.770;2023-04-25T08:53:28;73028.19;;;-149.71;57.49
53916;BME280;39827;49.652;18.770;2023-04-25T08:55:55;73022.16;;;-149.71;56.49
53916;BME280;39827;49.652;18.770;2023-04-25T08:58:21;73032.22;;;-149.71;56.02
53916;BME280;39827;49.652;18.770;2023-04-25T09:00:47;73024.16;;;-149.71;54.20
53916;BME280;39827;49.652;18.770;2023-04-25T09:03:13;73008.09;;;-149.71;54.93
53916;BME280;39827;49.652;18.770;2023-04-25T09:05:40;72977.97;;;-149.71;54.59
53916;BME280;39827;49.652;18.770;2023-04-25T09:08:06;72992.03;;;-149.71;52.85
53916;BME280;39827;49.652;18.770;2023-04-25T09:10:32;73022.16;;;-149.71;57.84
53916;BME280;39827;49.652;18.770;2023-04-25T09:13:07;73050.28;;;-149.71;56.01
53916;BME280;39827;49.652;18.770;2023-04-25T09:15:55;73092.47;;;-149.71;56.29
53916;BME280;39827;49.652;18.770;2023-04-25T09:18:36;73092.47;;;-149.71;57.00
53916;BME280;39827;49.652;18.770;2023-04-25T09:21:10;73110.53;;;-149.71;56.31
53916;BME280;39827;49.652;18.770;2023-04-25T09:23:41;73086.44;;;-149.71;57.57
53916;BME280;39827;49.652;18.770;2023-04-25T09:26:07;73082.41;;;-149.71;57.29
53916;BME280;39827;49.652;18.770;2023-04-25T09:28:34;73106.53;;;-149.71;56.79
53916;BME280;39827;49.652;18.770;2023-04-25T09:31:01;73128.63;;;-149.71;53.54
53916;BME280;39827;49.652;18.770;2023-04-25T09:33:32;73094.47;;;-149.71;57.55
53916;BME280;39827;49.652;18.770;2023-04-25T09:36:06;73072.38;;;-149.71;53.74
53916;BME280;39827;49.652;18.770;2023-04-25T09:38:39;73074.38;;;-149.71;52.83
53916;BME280;39827;49.652;18.770;2023-04-25T09:41:06;73072.38;;;-149.71;53.47
53916;BME280;39827;49.652;18.770;2023-04-25T09:43:32;73074.38;;;-149.71;51.30
53916;BME280;39827;49.652;18.770;2023-04-25T09:45:57;73066.34;;;-149.71;52.22
53916;BME280;39827;49.652;18.770;2023-04-25T09:48:26;73074.38;;;-149.71;51.36
53916;BME280;39827;49.652;18.770;2023-04-25T09:51:12;73060.31;;;-149.71;52.19
53916;BME280;39827;49.652;18.770;2023-04-25T09:53:41;73086.44;;;-149.71;51.70
53916;BME280;39827;49.652;18.770;2023-04-25T09:56:08;73072.38;;;-149.71;51.50
53916;BME280;39827;49.652;18.770;2023-04-25T09:58:35;73078.41;;;-149.71;52.06
53916;BME280;39827;49.652;18.770;2023-04-25T10:01:04;73066.34;;;-149.71;52.02
53916;BME280;39827;49.652;18.770;2023-04-25T10:03:31;73070.38;;;-149.71;53.50
53916;BME280;39827;49.652;18.770;2023-04-25T10:05:59;73066.34;;;-149.71;51.77
53916;BME280;39827;49.652;18.770;2023-04-25T10:08:30;73044.25;;;-149.71;52.02
53916;BME280;39827;49.652;18.770;2023-04-25T10:10:56;73036.22;;;-149.71;51.18
53916;BME280;39827;49.652;18.770;2023-04-25T10:13:23;73040.25;;;-149.71;51.75
53916;BME280;39827;49.652;18.770;2023-04-25T10:15:48;73056.31;;;-149.71;51.81
53916;BME280;39827;49.652;18.770;2023-04-25T10:18:14;73038.22;;;-149.71;50.67
53916;BME280;39827;49.652;18.770;2023-04-25T10:20:40;73042.25;;;-149.71;49.36
53916;BME280;39827;49.652;18.770;2023-04-25T10:23:13;73030.19;;;-149.71;49.17
53916;BME280;39827;49.652;18.770;2023-04-25T10:25:41;73078.41;;;-149.71;48.18
53916;BME280;39827;49.652;18.770;2023-04-25T10:28:06;73074.38;;;-149.71;48.20
53916;BME280;39827;49.652;18.770;2023-04-25T10:30:32;73074.38;;;-149.71;47.73
53916;BME280;39827;49.652;18.770;2023-04-25T10:32:59;73076.38;;;-149.71;48.20
53916;BME280;39827;49.652;18.770;2023-04-25T10:35:27;73048.28;;;-149.71;48.63
53916;BME280;39827;49.652;18.770;2023-04-25T10:38:09;73034.22;;;-149.71;47.26
53916;BME280;39827;49.652;18.770;2023-04-25T10:40:35;73030.19;;;-149.71;49.10
53916;BME280;39827;49.652;18.770;2023-04-25T10:43:37;73008.09;;;-149.71;46.84
53916;BME280;39827;49.652;18.770;2023-04-25T10:46:17;73042.25;;;-149.71;44.81
53916;BME280;39827;49.652;18.770;2023-04-25T10:48:45;73042.25;;;-149.71;46.26
53916;BME280;39827;49.652;18.770;2023-04-25T10:58:47;73026.19;;;-149.71;44.74
53916;BME280;39827;49.652;18.770;2023-04-25T11:01:13;73000.06;;;-149.71;46.41
53916;BME280;39827;49.652;18.770;2023-04-25T11:03:43;72990.03;;;-149.71;43.74
53916;BME280;39827;49.652;18.770;2023-04-25T11:06:22;72969.94;;;-149.71;46.09
53916;BME280;39827;49.652;18.770;2023-04-25T11:08:50;72973.97;;;-149.71;43.56
53916;BME280;39827;49.652;18.770;2023-04-25T11:11:19;72971.94;;;-149.71;45.80
53916;BME280;39827;49.652;18.770;2023-04-25T11:13:48;72979.97;;;-149.71;42.82
53916;BME280;39827;49.652;18.770;2023-04-25T11:16:14;72961.91;;;-149.71;43.96
53916;BME280;39827;49.652;18.770;2023-04-25T11:18:43;72994.03;;;-149.71;45.51
53916;BME280;39827;49.652;18.770;2023-04-25T11:21:10;72988.03;;;-149.71;45.08
53916;BME280;39827;49.652;18.770;2023-04-25T11:23:36;72996.06;;;-149.71;42.97
53916;BME280;39827;49.652;18.770;2023-04-25T11:26:02;73002.06;;;-149.71;44.33
53916;BME280;39827;49.652;18.770;2023-04-25T11:28:28;73010.13;;;-149.71;45.34
53916;BME280;39827;49.652;18.770;2023-04-25T11:30:53;73018.16;;;-149.71;43.81
53916;BME280;39827;49.652;18.770;2023-04-25T11:33:23;73010.13;;;-149.71;44.97
53916;BME280;39827;49.652;18.770;2023-04-25T11:35:49;73002.06;;;-149.71;43.97
53916;BME280;39827;49.652;18.770;2023-04-25T11:38:14;73006.09;;;-149.71;43.85
53916;BME280;39827;49.652;18.770;2023-04-25T11:40:40;72998.06;;;-149.71;44.24
53916;BME280;39827;49.652;18.770;2023-04-25T11:43:06;72975.97;;;-149.71;43.15
53916;BME280;39827;49.652;18.770;2023-04-25T11:45:32;72971.94;;;-149.71;43.81
53916;BME280;39827;49.652;18.770;2023-04-25T11:47:57;72957.88;;;-149.71;43.44
53916;BME280;39827;49.652;18.770;2023-04-25T11:50:23;72955.88;;;-149.71;43.04
53916;BME280;39827;49.652;18.770;2023-04-25T11:52:48;72959.91;;;-149.71;43.16
53916;BME280;39827;49.652;18.770;2023-04-25T11:55:19;72969.94;;;-149.71;41.45
53916;BME280;39827;49.652;18.770;2023-04-25T11:57:47;72990.03;;;-149.71;41.86
53916;BME280;39827;49.652;18.770;2023-04-25T12:00:14;72990.03;;;-149.71;44.04
53916;BME280;39827;49.652;18.770;2023-04-25T12:02:47;72979.97;;;-149.71;42.18
53916;BME280;39827;49.652;18.770;2023-04-25T12:05:14;73018.16;;;-149.71;43.28
53916;BME280;39827;49.652;18.770;2023-04-25T12:07:40;73018.16;;;-149.71;44.11
53916;BME280;39827;49.652;18.770;2023-04-25T12:10:11;72986.00;;;-149.71;43.06
53916;BME280;39827;49.652;18.770;2023-04-25T12:12:37;72990.03;;;-149.71;42.35
53916;BME280;39827;49.652;18.770;2023-04-25T12:17:41;72979.97;;;-149.71;43.30
53916;BME280;39827;49.652;18.770;2023-04-25T12:20:11;72969.94;;;-149.71;43.90
53916;BME280;39827;49.652;18.770;2023-04-25T12:22:37;73016.13;;;-149.71;44.12
53916;BME280;39827;49.652;18.770;2023-04-25T12:25:04;73020.16;;;-149.71;44.55
53916;BME280;39827;49.652;18.770;2023-04-25T12:27:31;72992.03;;;-149.71;45.19
53916;BME280;39827;49.652;18.770;2023-04-25T12:29:57;72984.00;;;-149.71;44.18
53916;BME280;39827;49.652;18.770;2023-04-25T12:32:23;72955.88;;;-149.71;43.38
53916;BME280;39827;49.652;18.770;2023-04-25T12:34:49;72959.91;;;-149.71;44.37
53916;BME280;39827;49.652;18.770;2023-04-25T12:37:14;72943.84;;;-149.71;42.93